Fabius, NY

5:28 AM EST on February 01, 2015 (GMT -0500)
Fabius | Change Station
CLOSE
Current Station
Personal Weather Station
Location: Fabius, NY
Elevation: 1280 ft
Nearby Weather Stations
Active Advisory: Winter Storm Warning

Elev 1280 ft 42.85 °N, 75.99 °W | Updated 1 minute ago

Overcast
Overcast
23.0 °F
Feels Like 23 °F
N
1.0
Wind Variable Wind from ENE
Gusts 11.0 mph

Today
High -- | Low -- °F
--% Chance of Precip.
Yesterday
High -- | Low -- °F
Precip. -- in
7:18 AM 5:16 PM
Waxing Gibbous, 94% visible
Pressure 30.16 in
Visibility 6.0 miles
Clouds Overcast 1400 ft
Windchill 23 °F
Dew Point 21 °F
Humidity 92%
Rainfall 0.00 in
Snow Depth Not available.
UV 0 out of 12
Pollen .10 out of 12
Air Quality Not available.
Flu Activity Not available.
METAR KSYR 010954Z 36008KT 6SM -SN BR OVC014 M06/M07 A3015 RMK AO2 SLP213 P0000 T10611067 $

More Conditions Fewer Conditions

Pressure 30.16 in
Visibility 6.0 miles
Clouds Overcast 1400 ft
Windchill 23 °F
Dew Point 21 °F
Humidity 92%
Rainfall 0.00 in
Snow Depth Not available.
UV 0 out of 12
Pollen .10 out of 12
Air Quality Not available.
Flu Activity Not available.
METAR KSYR 010954Z 36008KT 6SM -SN BR OVC014 M06/M07 A3015 RMK AO2 SLP213 P0000 T10611067 $

More Conditions Fewer Conditions

10-Day Weather Forecast

Almanac

Astronomy

Feb. 01, 2015 Rise Set
Actual Time
Civil Twilight
Nautical Twilight
Astronomical Twilight
Moon
Length of Visible Light
Length of Day
Tomorrow will be .
, % of the Moon is Illuminated

Today's Extremes

State Highs State Lows

Community

WunderPhotos

Upload Photos

1,792,325 photos uploaded!

WunderBlogs® & News

Nearby

Air Quality

  Air Quality AQ Index Pollutant
Not available.

Snow Depth

Station Depth Elevation

Earthquake Activity

City Distance Mag. Time & Date
Minimum magnitude displayed is 2.5.

Coastal Water Temperatures

Place Temperature

Nearby Weather Stations